createdAt,value
2023-04-05T00:01:25.730Z,4.82
2023-04-05T00:03:54.767Z,4.80
2023-04-05T00:06:26.738Z,5.07
2023-04-05T00:08:55.735Z,5.35
2023-04-05T00:11:23.276Z,5.00
2023-04-05T00:13:50.733Z,4.85
2023-04-05T00:16:18.672Z,5.10
2023-04-05T00:18:50.057Z,5.43
2023-04-05T00:21:23.757Z,4.60
2023-04-05T00:23:52.529Z,4.82
2023-04-05T00:26:22.905Z,4.38
2023-04-05T00:28:50.851Z,4.93
2023-04-05T00:31:21.598Z,4.90
2023-04-05T00:33:48.599Z,5.13
2023-04-05T00:36:20.768Z,5.18
2023-04-05T00:38:49.936Z,5.25
2023-04-05T00:41:17.002Z,4.72
2023-04-05T00:43:44.500Z,4.63
2023-04-05T00:46:11.587Z,5.60
2023-04-05T00:48:39.480Z,5.10
2023-04-05T00:51:09.760Z,5.03
2023-04-05T00:53:38.035Z,4.75
2023-04-05T00:56:05.432Z,5.50
2023-04-05T00:58:34.309Z,4.95
2023-04-05T01:01:14.293Z,4.80
2023-04-05T01:03:54.319Z,4.95
2023-04-05T01:06:46.350Z,4.78
2023-04-05T01:09:40.443Z,6.00
2023-04-05T01:12:12.441Z,4.63
2023-04-05T01:14:53.579Z,4.43
2023-04-05T01:17:24.423Z,4.72
2023-04-05T01:19:59.523Z,4.78
2023-04-05T01:22:54.602Z,4.80
2023-04-05T01:25:43.638Z,4.68
2023-04-05T01:28:36.030Z,4.82
2023-04-05T01:31:24.117Z,4.25
2023-04-05T01:34:02.364Z,4.45
2023-04-05T01:36:40.518Z,4.70
2023-04-05T01:39:12.088Z,4.13
2023-04-05T01:41:42.844Z,4.38
2023-04-05T01:44:09.772Z,3.90
2023-04-05T01:46:37.131Z,4.28
2023-04-05T01:49:06.096Z,4.88
2023-04-05T01:51:33.683Z,5.15
2023-04-05T02:05:16.581Z,4.25
2023-04-05T02:07:43.430Z,4.93
2023-04-05T02:10:13.324Z,4.72
2023-04-05T02:12:40.198Z,5.28
2023-04-05T02:15:07.842Z,4.85
2023-04-05T02:17:40.431Z,5.50
2023-04-05T02:20:08.910Z,4.22
2023-04-05T02:22:39.451Z,4.50
2023-04-05T02:26:39.328Z,4.35
2023-04-05T02:28:43.564Z,5.10
2023-04-05T02:31:15.884Z,4.80
2023-04-05T02:34:19.096Z,5.05
2023-04-05T02:36:47.975Z,5.00
2023-04-05T02:39:14.939Z,4.97
2023-04-05T02:41:48.673Z,4.70
2023-04-05T02:48:10.297Z,4.57
2023-04-05T02:50:38.425Z,4.40
2023-04-05T02:53:35.614Z,4.90
2023-04-05T02:56:08.739Z,5.40
2023-04-05T02:58:35.808Z,4.82
2023-04-05T03:01:07.818Z,5.68
2023-04-05T03:03:35.188Z,6.38
2023-04-05T03:06:11.087Z,15.77
2023-04-05T03:08:46.938Z,7.50
2023-04-05T03:11:14.749Z,7.40
2023-04-05T03:13:42.075Z,5.70
2023-04-05T03:16:09.104Z,5.43
2023-04-05T03:18:36.171Z,6.00
2023-04-05T03:21:04.657Z,7.97
2023-04-05T03:23:32.720Z,5.63
2023-04-05T03:26:04.127Z,5.50
2023-04-05T03:28:34.815Z,5.25
2023-04-05T03:31:01.789Z,6.15
2023-04-05T03:33:29.433Z,5.28
2023-04-05T03:58:56.582Z,5.20
2023-04-05T04:01:23.565Z,5.32
2023-04-05T04:03:53.482Z,5.40
2023-04-05T04:06:34.335Z,6.00
2023-04-05T04:09:01.192Z,10.27
2023-04-05T04:12:07.856Z,12.00
2023-04-05T04:18:26.918Z,7.50
2023-04-05T04:21:25.620Z,10.40
2023-04-05T04:23:53.470Z,8.73
2023-04-05T04:26:32.781Z,8.88
2023-04-05T04:29:00.067Z,7.03
2023-04-05T04:31:27.802Z,5.65
2023-04-05T04:33:56.743Z,6.28
2023-04-05T04:36:35.206Z,6.25
2023-04-05T04:39:08.521Z,6.68
2023-04-05T04:41:36.471Z,6.65
2023-04-05T04:44:03.450Z,5.95
2023-04-05T04:46:35.126Z,5.53
2023-04-05T04:49:06.380Z,5.60
2023-04-05T04:51:33.904Z,5.68
2023-04-05T04:54:02.721Z,6.05
2023-04-05T04:56:29.765Z,7.30
2023-04-05T04:59:00.508Z,5.53
2023-04-05T05:01:31.121Z,5.80
2023-04-05T05:04:04.888Z,7.65
2023-04-05T05:06:34.781Z,5.57
2023-04-05T05:09:01.837Z,6.55
2023-04-05T05:11:29.182Z,6.93
2023-04-05T05:13:56.134Z,8.52
2023-04-05T05:16:24.107Z,6.93
2023-04-05T05:18:52.061Z,6.70
2023-04-05T05:21:51.693Z,5.85
2023-04-05T05:24:27.967Z,6.38
2023-04-05T05:26:54.891Z,6.97
2023-04-05T05:29:34.993Z,6.25
2023-04-05T05:32:26.594Z,6.72
2023-04-05T05:35:01.342Z,7.75
2023-04-05T05:41:07.690Z,6.22
2023-04-05T05:43:37.913Z,5.47
2023-04-05T05:46:07.964Z,5.15
2023-04-05T05:48:42.920Z,7.10
2023-04-05T05:51:44.324Z,6.18
2023-04-05T05:54:12.235Z,7.55
2023-04-05T05:56:41.050Z,5.53
2023-04-05T05:59:07.957Z,5.78
2023-04-05T06:01:40.909Z,5.28
2023-04-05T06:04:09.217Z,6.03
2023-04-05T06:06:57.186Z,6.20
2023-04-05T06:09:27.599Z,5.20
2023-04-05T06:11:56.869Z,4.82
2023-04-05T06:14:48.265Z,5.53
2023-04-05T06:17:45.318Z,5.63
2023-04-05T06:20:13.669Z,5.10
2023-04-05T06:26:41.163Z,4.25
2023-04-05T06:30:30.894Z,4.72
2023-04-05T06:33:07.369Z,6.15
2023-04-05T06:35:40.049Z,5.07
2023-04-05T06:38:07.476Z,6.43
2023-04-05T06:40:38.298Z,5.78
2023-04-05T06:43:10.001Z,4.60
2023-04-05T06:45:37.621Z,6.18
2023-04-05T06:51:50.897Z,5.10
2023-04-05T07:06:14.863Z,3.97
2023-04-05T07:12:14.675Z,5.15
2023-04-05T07:14:42.586Z,5.10
2023-04-05T07:17:11.330Z,4.88
2023-04-05T07:19:38.533Z,4.30
2023-04-05T07:22:08.195Z,4.05
2023-04-05T07:24:35.198Z,4.60
2023-04-05T07:27:38.161Z,4.25
2023-04-05T07:30:07.575Z,4.30
2023-04-05T07:32:37.726Z,5.55
2023-04-05T07:40:29.436Z,3.75
2023-04-05T07:45:56.125Z,3.08
2023-04-05T07:48:48.657Z,4.25
2023-04-05T07:51:19.656Z,3.30
2023-04-05T07:54:46.641Z,4.22
2023-04-05T07:57:20.525Z,3.80
2023-04-05T08:03:43.216Z,3.10
2023-04-05T08:06:24.391Z,4.05
2023-04-05T08:09:58.307Z,4.25
2023-04-05T08:13:18.834Z,7.15
2023-04-05T08:18:44.286Z,1.88
2023-04-05T08:37:17.219Z,3.38
2023-04-05T08:40:17.599Z,2.63
2023-04-05T08:57:49.091Z,1.58
2023-04-05T09:00:21.385Z,1.70
2023-04-05T09:02:54.358Z,2.00
2023-04-05T09:05:51.657Z,1.90
2023-04-05T09:08:19.836Z,1.63
2023-04-05T09:10:56.198Z,2.78
2023-04-05T09:33:29.104Z,2.30
2023-04-05T09:47:49.819Z,7.25
2023-04-05T09:50:17.022Z,2.25
2023-04-05T09:53:08.089Z,2.13
2023-04-05T09:56:18.362Z,2.40
2023-04-05T10:02:40.125Z,5.60
2023-04-05T10:12:29.782Z,3.42
2023-04-05T10:15:03.807Z,2.45
2023-04-05T10:20:50.901Z,2.15
2023-04-05T10:32:16.996Z,1.63
2023-04-05T10:35:14.510Z,2.30
2023-04-05T10:40:51.237Z,2.00
2023-04-05T10:46:22.398Z,3.30
2023-04-05T10:49:43.076Z,2.70
2023-04-05T10:52:10.932Z,1.52
2023-04-05T10:54:38.857Z,2.08
2023-04-05T10:57:10.431Z,1.50
2023-04-05T11:00:03.826Z,4.28
2023-04-05T11:02:31.542Z,2.42
2023-04-05T11:05:05.324Z,2.63
2023-04-05T11:07:45.694Z,3.05
2023-04-05T11:10:21.875Z,1.58
2023-04-05T11:12:58.331Z,2.25
2023-04-05T11:16:13.531Z,2.58
2023-04-05T11:18:48.217Z,2.78
2023-04-05T11:24:02.888Z,3.20
2023-04-05T11:27:24.024Z,3.50
2023-04-05T11:30:37.361Z,2.30
2023-04-05T11:33:08.774Z,3.40
2023-04-05T11:40:02.414Z,3.22
2023-04-05T11:42:32.715Z,2.28
2023-04-05T11:45:00.662Z,2.50
2023-04-05T11:53:12.843Z,2.80
2023-04-05T11:54:57.746Z,2.38
2023-04-05T12:01:13.898Z,2.55
2023-04-05T12:07:18.828Z,2.28
2023-04-05T12:07:20.461Z,2.55
2023-04-05T12:13:12.671Z,2.50
2023-04-05T12:19:46.708Z,2.50
2023-04-05T12:22:14.109Z,2.42
2023-04-05T12:24:53.923Z,2.13
2023-04-05T12:27:32.836Z,2.33
2023-04-05T12:30:36.583Z,3.30
2023-04-05T12:36:08.650Z,2.35
2023-04-05T12:39:25.728Z,3.58
2023-04-05T12:42:20.225Z,3.20
2023-04-05T12:45:07.503Z,2.72
2023-04-05T12:50:28.932Z,2.25
2023-04-05T12:56:22.260Z,2.08
2023-04-05T12:58:52.426Z,2.88
2023-04-05T13:01:57.892Z,2.60
2023-04-05T13:07:11.811Z,4.63
2023-04-05T13:09:49.178Z,2.90
2023-04-05T13:51:21.392Z,2.05
2023-04-05T14:19:47.376Z,5.10
2023-04-05T14:25:36.398Z,3.22
2023-04-05T14:28:07.281Z,3.85
2023-04-05T14:31:02.804Z,3.38
2023-04-05T14:36:21.265Z,3.42
2023-04-05T14:38:48.238Z,3.42
2023-04-05T14:41:15.277Z,4.53
2023-04-05T14:43:42.900Z,4.60
2023-04-05T14:49:06.745Z,4.70
2023-04-05T15:09:33.707Z,4.20
2023-04-05T15:12:08.898Z,3.70
2023-04-05T15:14:39.432Z,3.65
2023-04-05T15:17:06.577Z,3.03
2023-04-05T15:19:36.789Z,3.60
2023-04-05T15:22:04.572Z,3.70
2023-04-05T15:24:34.192Z,2.97
2023-04-05T15:27:04.248Z,3.00
2023-04-05T15:29:35.241Z,3.00
2023-04-05T15:32:03.414Z,3.80
2023-04-05T15:34:33.897Z,3.67
2023-04-05T15:37:35.456Z,3.05
2023-04-05T15:40:08.801Z,3.83
2023-04-05T15:42:37.609Z,4.30
2023-04-05T15:45:05.027Z,4.82
2023-04-05T15:47:32.043Z,5.10
2023-04-05T15:50:01.585Z,4.93
2023-04-05T15:52:28.770Z,4.65
2023-04-05T15:56:22.946Z,5.10
2023-04-05T15:58:40.289Z,6.05
2023-04-05T16:01:07.710Z,4.78
2023-04-05T16:03:37.969Z,4.90
2023-04-05T16:06:07.609Z,4.68
2023-04-05T16:08:34.948Z,5.45
2023-04-05T16:11:08.676Z,5.45
2023-04-05T16:33:26.719Z,6.53
2023-04-05T16:36:11.576Z,6.63
2023-04-05T16:41:23.893Z,8.32
2023-04-05T16:51:55.257Z,5.85
2023-04-05T17:08:58.591Z,5.47
2023-04-05T17:11:43.536Z,6.43
2023-04-05T17:18:19.593Z,5.95
2023-04-05T17:21:23.306Z,6.13
2023-04-05T17:24:45.158Z,5.90
2023-04-05T17:35:27.640Z,5.88
2023-04-05T17:38:08.132Z,7.30
2023-04-05T17:41:15.273Z,6.65
2023-04-05T17:54:32.507Z,7.13
2023-04-05T17:56:59.653Z,7.57
2023-04-05T17:59:26.692Z,6.22
2023-04-05T18:01:56.413Z,5.65
2023-04-05T18:04:29.982Z,6.88
2023-04-05T18:06:57.297Z,7.90
2023-04-05T18:09:24.442Z,6.75
2023-04-05T18:11:58.159Z,6.55
2023-04-05T18:14:26.049Z,7.10
2023-04-05T18:17:22.780Z,6.95
2023-04-05T18:20:19.571Z,6.18
2023-04-05T18:23:22.791Z,5.90
2023-04-05T18:26:10.835Z,5.95
2023-04-05T18:28:37.925Z,5.50
2023-04-05T18:31:07.222Z,6.13
2023-04-05T18:33:42.936Z,6.68
2023-04-05T18:36:13.261Z,6.25
2023-04-05T18:39:00.998Z,6.75
2023-04-05T18:41:33.507Z,6.70
2023-04-05T18:44:10.388Z,6.13
2023-04-05T18:46:38.815Z,6.22
2023-04-05T18:49:06.493Z,6.20
2023-04-05T18:51:34.203Z,6.30
2023-04-05T18:54:01.342Z,6.03
2023-04-05T18:56:33.451Z,5.95
2023-04-05T18:59:00.501Z,6.90
2023-04-05T19:01:27.711Z,6.97
2023-04-05T19:03:54.781Z,7.45
2023-04-05T19:06:22.157Z,7.60
2023-04-05T19:08:49.357Z,6.45
2023-04-05T19:11:19.333Z,6.00
2023-04-05T19:13:46.916Z,6.97
2023-04-05T19:16:13.916Z,5.93
2023-04-05T19:18:40.925Z,6.15
2023-04-05T19:21:08.942Z,6.72
2023-04-05T19:23:36.882Z,6.97
2023-04-05T19:26:03.746Z,5.93
2023-04-05T19:28:30.794Z,6.65
2023-04-05T19:31:02.511Z,6.85
2023-04-05T19:33:31.912Z,6.30
2023-04-05T19:36:02.445Z,6.40
2023-04-05T19:38:29.946Z,7.20
2023-04-05T19:40:57.095Z,7.47
2023-04-05T19:43:26.752Z,7.68
2023-04-05T19:45:58.712Z,7.47
2023-04-05T19:48:40.324Z,7.70
2023-04-05T19:51:11.992Z,8.27
2023-04-05T19:53:43.033Z,8.32
2023-04-05T19:56:14.537Z,8.18
2023-04-05T19:58:42.656Z,8.35
2023-04-05T20:01:09.920Z,7.13
2023-04-05T20:03:43.092Z,8.15
2023-04-05T20:06:12.437Z,7.65
2023-04-05T20:08:45.225Z,7.40
2023-04-05T20:11:17.009Z,6.95
2023-04-05T20:13:52.372Z,6.95
2023-04-05T20:16:26.565Z,7.68
2023-04-05T20:18:54.798Z,6.60
2023-04-05T20:21:21.621Z,7.20
2023-04-05T20:23:48.568Z,6.85
2023-04-05T20:26:16.944Z,6.95
2023-04-05T20:29:04.361Z,7.07
2023-04-05T20:31:33.981Z,7.03
2023-04-05T20:34:14.481Z,6.85
2023-04-05T20:36:52.723Z,8.40
2023-04-05T20:39:19.836Z,7.22
2023-04-05T20:41:47.277Z,7.45
2023-04-05T20:44:14.640Z,7.45
2023-04-05T20:46:41.879Z,7.43
2023-04-05T20:49:10.677Z,6.07
2023-04-05T20:51:39.891Z,6.55
2023-04-05T20:54:08.145Z,6.95
2023-04-05T20:56:35.117Z,6.18
2023-04-05T20:59:02.390Z,6.90
2023-04-05T21:01:29.546Z,8.20
2023-04-05T21:03:57.154Z,6.88
2023-04-05T21:06:24.128Z,5.90
2023-04-05T21:08:51.096Z,6.28
2023-04-05T21:11:18.095Z,5.82
2023-04-05T21:13:45.348Z,6.05
2023-04-05T21:16:12.325Z,6.22
2023-04-05T21:18:39.338Z,5.97
2023-04-05T21:21:06.613Z,6.35
2023-04-05T21:23:34.485Z,5.85
2023-04-05T21:26:01.955Z,7.28
2023-04-05T21:28:29.746Z,6.63
2023-04-05T21:30:56.793Z,6.85
2023-04-05T21:33:23.968Z,6.20
2023-04-05T21:35:51.744Z,6.63
2023-04-05T21:38:18.868Z,6.75
2023-04-05T21:40:45.962Z,6.38
2023-04-05T21:43:13.964Z,6.28
2023-04-05T21:45:41.129Z,6.82
2023-04-05T21:48:08.519Z,6.93
2023-04-05T21:50:36.309Z,7.10
2023-04-05T21:53:03.251Z,6.57
2023-04-05T21:55:30.292Z,6.50
2023-04-05T21:57:57.455Z,6.85
2023-04-05T22:00:24.365Z,6.78
2023-04-05T22:02:54.093Z,6.50
2023-04-05T22:05:36.220Z,6.78
2023-04-05T22:08:06.005Z,6.50
2023-04-05T22:10:33.783Z,6.85
2023-04-05T22:13:00.626Z,6.28
2023-04-05T22:15:27.530Z,6.30
2023-04-05T22:17:55.054Z,6.55
2023-04-05T22:20:22.202Z,7.07
2023-04-05T22:22:49.201Z,6.57
2023-04-05T22:25:16.898Z,6.65
2023-04-05T22:27:43.712Z,6.28
2023-04-05T22:30:13.083Z,7.20
2023-04-05T22:32:40.555Z,6.18
2023-04-05T22:35:07.820Z,7.30
2023-04-05T22:37:36.709Z,7.18
2023-04-05T22:40:05.016Z,6.53
2023-04-05T22:42:32.301Z,7.07
2023-04-05T22:45:02.252Z,6.75
2023-04-05T22:47:29.650Z,6.05
2023-04-05T22:49:56.646Z,6.93
2023-04-05T22:52:23.608Z,6.18
2023-04-05T22:54:53.593Z,6.40
2023-04-05T22:57:20.726Z,6.20
2023-04-05T22:59:47.578Z,6.72
2023-04-05T23:02:14.942Z,6.70
2023-04-05T23:04:41.840Z,6.25
2023-04-05T23:07:08.660Z,6.00
2023-04-05T23:09:36.374Z,6.82
2023-04-05T23:12:03.400Z,6.78
2023-04-05T23:14:30.199Z,6.70
2023-04-05T23:16:57.527Z,6.57
2023-04-05T23:19:24.284Z,7.05
2023-04-05T23:21:51.681Z,6.40
2023-04-05T23:24:19.090Z,6.15
2023-04-05T23:26:46.222Z,6.38
2023-04-05T23:29:13.169Z,6.63
2023-04-05T23:31:42.904Z,6.05
2023-04-05T23:34:09.852Z,6.47
2023-04-05T23:36:37.201Z,6.38
2023-04-05T23:39:04.588Z,6.47
2023-04-05T23:41:31.734Z,7.25
2023-04-05T23:43:58.593Z,7.50
2023-04-05T23:46:26.655Z,7.53
2023-04-05T23:48:53.590Z,7.70
2023-04-05T23:51:21.150Z,7.78
2023-04-05T23:53:48.024Z,7.90
2023-04-05T23:56:15.378Z,8.40
2023-04-05T23:58:42.498Z,7.45
